Labelle, Canada
Current Conditions -  °F | °C
As of 7:00 AM on Wednesday 28 Jan 2015 (Local Time) from CYMX Reporting Station
Broken Clouds Broken Clouds  
Wind Chill: -8°   Ceiling: 15000
Heat Index:   Visibility: 45mi
Dew Point: -8°   Wind: 6mph
Humidity: 61%   Direction: 260°W
Pressure: 30.11"   Gusts: NA
Location:  46.28°N, 74.73°W
Report Text: CYMX 281200Z 26005KT 45SM FEW050 BKN150 BKN240 M16/M22 A3011 RMK SC1AC5CI2 SC TR SLP203
Loading
Personal Weather Stations






























Interactive Weather Map New forecast layout! Learn more

10-Day Weather Forecast

Advertisements
Track Severe Weather on mobile